sensor_id;sensor_type;location;lat;lon;timestamp;P1;durP1;ratioP1;P2;durP2;ratioP2
40675;SDS011;26359;48.750;9.314;2022-09-03T00:00:25;10.95;;;10.38;;
40675;SDS011;26359;48.750;9.314;2022-09-03T00:02:59;5.10;;;3.97;;
40675;SDS011;26359;48.750;9.314;2022-09-03T00:05:40;4.13;;;3.65;;
40675;SDS011;26359;48.750;9.314;2022-09-03T00:11:04;3.85;;;3.55;;
40675;SDS011;26359;48.750;9.314;2022-09-03T00:13:41;4.25;;;3.30;;
40675;SDS011;26359;48.750;9.314;2022-09-03T00:16:16;7.25;;;4.68;;
40675;SDS011;26359;48.750;9.314;2022-09-03T00:18:46;4.38;;;4.05;;
40675;SDS011;26359;48.750;9.314;2022-09-03T00:21:29;5.22;;;4.82;;
40675;SDS011;26359;48.750;9.314;2022-09-03T00:24:02;4.90;;;4.47;;
40675;SDS011;26359;48.750;9.314;2022-09-03T00:26:30;3.88;;;3.58;;
40675;SDS011;26359;48.750;9.314;2022-09-03T00:31:44;4.47;;;4.05;;
40675;SDS011;26359;48.750;9.314;2022-09-03T00:34:23;5.80;;;5.32;;
40675;SDS011;26359;48.750;9.314;2022-09-03T00:36:54;7.72;;;7.22;;
40675;SDS011;26359;48.750;9.314;2022-09-03T00:39:21;7.53;;;7.10;;
40675;SDS011;26359;48.750;9.314;2022-09-03T00:47:33;4.10;;;3.70;;
40675;SDS011;26359;48.750;9.314;2022-09-03T00:52:59;5.13;;;4.75;;
40675;SDS011;26359;48.750;9.314;2022-09-03T00:56:03;4.40;;;4.03;;
40675;SDS011;26359;48.750;9.314;2022-09-03T01:01:54;3.75;;;3.50;;
40675;SDS011;26359;48.750;9.314;2022-09-03T01:07:34;7.10;;;3.55;;
40675;SDS011;26359;48.750;9.314;2022-09-03T01:10:22;4.57;;;4.15;;
40675;SDS011;26359;48.750;9.314;2022-09-03T01:13:15;6.28;;;4.95;;
40675;SDS011;26359;48.750;9.314;2022-09-03T01:15:56;7.10;;;6.60;;
40675;SDS011;26359;48.750;9.314;2022-09-03T01:18:51;10.77;;;9.85;;
40675;SDS011;26359;48.750;9.314;2022-09-03T01:29:57;6.72;;;6.22;;
40675;SDS011;26359;48.750;9.314;2022-09-03T01:41:05;5.95;;;4.03;;
40675;SDS011;26359;48.750;9.314;2022-09-03T01:46:43;5.32;;;4.90;;
40675;SDS011;26359;48.750;9.314;2022-09-03T01:49:21;15.40;;;14.48;;
40675;SDS011;26359;48.750;9.314;2022-09-03T01:52:01;11.98;;;11.07;;
40675;SDS011;26359;48.750;9.314;2022-09-03T01:57:07;14.60;;;13.55;;
40675;SDS011;26359;48.750;9.314;2022-09-03T02:02:24;11.75;;;11.07;;
40675;SDS011;26359;48.750;9.314;2022-09-03T02:04:58;14.05;;;13.10;;
40675;SDS011;26359;48.750;9.314;2022-09-03T02:07:28;7.15;;;6.55;;
40675;SDS011;26359;48.750;9.314;2022-09-03T02:10:00;8.95;;;5.18;;
40675;SDS011;26359;48.750;9.314;2022-09-03T02:12:28;5.90;;;5.53;;
40675;SDS011;26359;48.750;9.314;2022-09-03T02:14:57;11.13;;;10.52;;
40675;SDS011;26359;48.750;9.314;2022-09-03T02:17:24;4.80;;;4.10;;
40675;SDS011;26359;48.750;9.314;2022-09-03T02:19:50;6.60;;;6.18;;
40675;SDS011;26359;48.750;9.314;2022-09-03T02:22:15;8.13;;;7.63;;
40675;SDS011;26359;48.750;9.314;2022-09-03T02:24:41;4.38;;;4.07;;
40675;SDS011;26359;48.750;9.314;2022-09-03T02:27:07;4.80;;;4.10;;
40675;SDS011;26359;48.750;9.314;2022-09-03T02:29:33;6.22;;;5.80;;
40675;SDS011;26359;48.750;9.314;2022-09-03T02:31:58;10.75;;;9.95;;
40675;SDS011;26359;48.750;9.314;2022-09-03T02:34:24;10.60;;;9.75;;
40675;SDS011;26359;48.750;9.314;2022-09-03T02:36:50;6.15;;;5.75;;
40675;SDS011;26359;48.750;9.314;2022-09-03T02:39:16;9.18;;;8.50;;
40675;SDS011;26359;48.750;9.314;2022-09-03T02:41:42;8.40;;;7.22;;
40675;SDS011;26359;48.750;9.314;2022-09-03T02:44:12;8.80;;;8.23;;
40675;SDS011;26359;48.750;9.314;2022-09-03T02:46:56;6.43;;;5.93;;
40675;SDS011;26359;48.750;9.314;2022-09-03T02:49:26;6.55;;;6.05;;
40675;SDS011;26359;48.750;9.314;2022-09-03T02:51:56;7.45;;;6.95;;
40675;SDS011;26359;48.750;9.314;2022-09-03T02:54:25;7.50;;;7.00;;
40675;SDS011;26359;48.750;9.314;2022-09-03T02:56:51;10.13;;;9.60;;
40675;SDS011;26359;48.750;9.314;2022-09-03T02:59:16;8.68;;;7.82;;
40675;SDS011;26359;48.750;9.314;2022-09-03T03:01:42;8.25;;;7.63;;
40675;SDS011;26359;48.750;9.314;2022-09-03T03:04:08;7.78;;;7.18;;
40675;SDS011;26359;48.750;9.314;2022-09-03T03:06:33;8.13;;;7.35;;
40675;SDS011;26359;48.750;9.314;2022-09-03T03:08:59;8.38;;;7.75;;
40675;SDS011;26359;48.750;9.314;2022-09-03T03:11:25;11.27;;;7.15;;
40675;SDS011;26359;48.750;9.314;2022-09-03T03:13:51;10.05;;;9.27;;
40675;SDS011;26359;48.750;9.314;2022-09-03T03:16:17;8.00;;;7.40;;
40675;SDS011;26359;48.750;9.314;2022-09-03T03:18:42;7.07;;;6.68;;
40675;SDS011;26359;48.750;9.314;2022-09-03T03:21:12;5.80;;;4.55;;
40675;SDS011;26359;48.750;9.314;2022-09-03T03:23:40;4.55;;;4.15;;
40675;SDS011;26359;48.750;9.314;2022-09-03T03:26:07;6.15;;;5.75;;
40675;SDS011;26359;48.750;9.314;2022-09-03T03:28:38;5.05;;;4.65;;
40675;SDS011;26359;48.750;9.314;2022-09-03T03:31:09;4.97;;;4.57;;
40675;SDS011;26359;48.750;9.314;2022-09-03T03:33:37;7.18;;;6.72;;
40675;SDS011;26359;48.750;9.314;2022-09-03T03:36:08;7.40;;;6.82;;
40675;SDS011;26359;48.750;9.314;2022-09-03T03:38:39;6.05;;;5.65;;
40675;SDS011;26359;48.750;9.314;2022-09-03T03:41:06;9.02;;;8.32;;
40675;SDS011;26359;48.750;9.314;2022-09-03T03:43:35;7.85;;;7.35;;
40675;SDS011;26359;48.750;9.314;2022-09-03T03:46:01;6.68;;;6.15;;
40675;SDS011;26359;48.750;9.314;2022-09-03T03:48:27;8.70;;;7.72;;
40675;SDS011;26359;48.750;9.314;2022-09-03T03:50:52;6.50;;;5.90;;
40675;SDS011;26359;48.750;9.314;2022-09-03T03:53:18;8.95;;;8.35;;
40675;SDS011;26359;48.750;9.314;2022-09-03T03:55:53;5.65;;;5.25;;
40675;SDS011;26359;48.750;9.314;2022-09-03T03:58:21;8.00;;;7.50;;
40675;SDS011;26359;48.750;9.314;2022-09-03T04:00:47;8.45;;;7.82;;
40675;SDS011;26359;48.750;9.314;2022-09-03T04:03:14;6.65;;;5.80;;
40675;SDS011;26359;48.750;9.314;2022-09-03T04:05:39;7.10;;;6.35;;
40675;SDS011;26359;48.750;9.314;2022-09-03T04:08:05;8.75;;;8.15;;
40675;SDS011;26359;48.750;9.314;2022-09-03T04:10:30;7.35;;;6.95;;
40675;SDS011;26359;48.750;9.314;2022-09-03T04:12:56;5.72;;;5.30;;
40675;SDS011;26359;48.750;9.314;2022-09-03T04:15:21;7.53;;;6.93;;
40675;SDS011;26359;48.750;9.314;2022-09-03T04:17:47;8.25;;;7.45;;
40675;SDS011;26359;48.750;9.314;2022-09-03T04:20:12;7.65;;;7.00;;
40675;SDS011;26359;48.750;9.314;2022-09-03T04:22:41;8.85;;;8.18;;
40675;SDS011;26359;48.750;9.314;2022-09-03T04:25:07;9.10;;;8.52;;
40675;SDS011;26359;48.750;9.314;2022-09-03T04:27:32;7.47;;;6.78;;
40675;SDS011;26359;48.750;9.314;2022-09-03T04:29:58;8.77;;;8.18;;
40675;SDS011;26359;48.750;9.314;2022-09-03T04:32:23;9.45;;;8.65;;
40675;SDS011;26359;48.750;9.314;2022-09-03T04:35:10;6.95;;;6.45;;
40675;SDS011;26359;48.750;9.314;2022-09-03T04:37:36;6.05;;;5.63;;
40675;SDS011;26359;48.750;9.314;2022-09-03T04:40:02;5.10;;;4.68;;
40675;SDS011;26359;48.750;9.314;2022-09-03T04:42:28;6.65;;;5.72;;
40675;SDS011;26359;48.750;9.314;2022-09-03T04:44:53;6.10;;;5.50;;
40675;SDS011;26359;48.750;9.314;2022-09-03T04:47:19;10.18;;;6.25;;
40675;SDS011;26359;48.750;9.314;2022-09-03T04:49:44;5.47;;;4.25;;
40675;SDS011;26359;48.750;9.314;2022-09-03T04:52:10;6.85;;;6.25;;
40675;SDS011;26359;48.750;9.314;2022-09-03T04:54:36;8.35;;;7.18;;
40675;SDS011;26359;48.750;9.314;2022-09-03T04:57:02;7.95;;;7.30;;
40675;SDS011;26359;48.750;9.314;2022-09-03T04:59:28;7.90;;;7.32;;
40675;SDS011;26359;48.750;9.314;2022-09-03T05:01:53;4.68;;;4.25;;
40675;SDS011;26359;48.750;9.314;2022-09-03T05:04:20;5.63;;;5.15;;
40675;SDS011;26359;48.750;9.314;2022-09-03T05:06:46;4.65;;;4.25;;
40675;SDS011;26359;48.750;9.314;2022-09-03T05:09:11;5.20;;;4.70;;
40675;SDS011;26359;48.750;9.314;2022-09-03T05:11:37;6.75;;;6.18;;
40675;SDS011;26359;48.750;9.314;2022-09-03T05:14:02;5.95;;;5.40;;
40675;SDS011;26359;48.750;9.314;2022-09-03T05:16:29;6.32;;;5.82;;
40675;SDS011;26359;48.750;9.314;2022-09-03T05:18:56;14.32;;;13.35;;
40675;SDS011;26359;48.750;9.314;2022-09-03T05:21:23;6.10;;;5.70;;
40675;SDS011;26359;48.750;9.314;2022-09-03T05:23:50;8.80;;;8.20;;
40675;SDS011;26359;48.750;9.314;2022-09-03T05:26:17;6.20;;;5.47;;
40675;SDS011;26359;48.750;9.314;2022-09-03T05:28:44;17.73;;;16.65;;
40675;SDS011;26359;48.750;9.314;2022-09-03T05:31:18;17.42;;;16.25;;
40675;SDS011;26359;48.750;9.314;2022-09-03T05:33:45;17.38;;;16.45;;
40675;SDS011;26359;48.750;9.314;2022-09-03T05:36:13;12.48;;;11.60;;
40675;SDS011;26359;48.750;9.314;2022-09-03T05:38:41;10.43;;;9.73;;
40675;SDS011;26359;48.750;9.314;2022-09-03T05:41:08;8.85;;;8.25;;
40675;SDS011;26359;48.750;9.314;2022-09-03T05:43:35;5.78;;;5.15;;
40675;SDS011;26359;48.750;9.314;2022-09-03T05:46:03;18.80;;;17.55;;
40675;SDS011;26359;48.750;9.314;2022-09-03T05:48:31;19.90;;;18.83;;
40675;SDS011;26359;48.750;9.314;2022-09-03T05:51:01;27.63;;;26.02;;
40675;SDS011;26359;48.750;9.314;2022-09-03T05:53:32;23.60;;;22.13;;
40675;SDS011;26359;48.750;9.314;2022-09-03T05:56:00;25.00;;;23.50;;
40675;SDS011;26359;48.750;9.314;2022-09-03T05:58:30;11.07;;;10.23;;
40675;SDS011;26359;48.750;9.314;2022-09-03T06:00:57;11.05;;;10.45;;
40675;SDS011;26359;48.750;9.314;2022-09-03T06:03:22;7.18;;;6.68;;
40675;SDS011;26359;48.750;9.314;2022-09-03T06:05:52;11.45;;;10.38;;
40675;SDS011;26359;48.750;9.314;2022-09-03T06:08:18;10.52;;;9.73;;
40675;SDS011;26359;48.750;9.314;2022-09-03T06:10:47;11.90;;;10.77;;
40675;SDS011;26359;48.750;9.314;2022-09-03T06:13:12;10.50;;;9.57;;
40675;SDS011;26359;48.750;9.314;2022-09-03T06:15:38;9.30;;;8.70;;
40675;SDS011;26359;48.750;9.314;2022-09-03T06:18:04;9.52;;;8.93;;
40675;SDS011;26359;48.750;9.314;2022-09-03T06:20:30;11.02;;;10.23;;
40675;SDS011;26359;48.750;9.314;2022-09-03T06:22:57;11.68;;;10.77;;
40675;SDS011;26359;48.750;9.314;2022-09-03T06:25:22;6.40;;;5.93;;
40675;SDS011;26359;48.750;9.314;2022-09-03T06:27:48;8.18;;;7.00;;
40675;SDS011;26359;48.750;9.314;2022-09-03T06:30:14;8.48;;;7.65;;
40675;SDS011;26359;48.750;9.314;2022-09-03T06:32:44;9.02;;;8.32;;
40675;SDS011;26359;48.750;9.314;2022-09-03T06:35:10;12.48;;;11.77;;
40675;SDS011;26359;48.750;9.314;2022-09-03T06:37:40;9.48;;;8.77;;
40675;SDS011;26359;48.750;9.314;2022-09-03T06:40:06;20.95;;;19.80;;
40675;SDS011;26359;48.750;9.314;2022-09-03T06:42:36;11.50;;;10.55;;
40675;SDS011;26359;48.750;9.314;2022-09-03T06:45:02;7.20;;;6.68;;
40675;SDS011;26359;48.750;9.314;2022-09-03T06:47:30;9.63;;;8.93;;
40675;SDS011;26359;48.750;9.314;2022-09-03T06:49:57;17.70;;;16.45;;
40675;SDS011;26359;48.750;9.314;2022-09-03T06:52:24;13.50;;;12.57;;
40675;SDS011;26359;48.750;9.314;2022-09-03T06:54:50;8.93;;;8.23;;
40675;SDS011;26359;48.750;9.314;2022-09-03T06:57:16;10.07;;;9.48;;
40675;SDS011;26359;48.750;9.314;2022-09-03T06:59:41;14.50;;;13.70;;
40675;SDS011;26359;48.750;9.314;2022-09-03T07:02:08;12.30;;;11.40;;
40675;SDS011;26359;48.750;9.314;2022-09-03T07:04:34;7.85;;;7.10;;
40675;SDS011;26359;48.750;9.314;2022-09-03T07:06:59;13.25;;;12.35;;
40675;SDS011;26359;48.750;9.314;2022-09-03T07:09:25;10.00;;;9.07;;
40675;SDS011;26359;48.750;9.314;2022-09-03T07:11:51;11.43;;;10.52;;
40675;SDS011;26359;48.750;9.314;2022-09-03T07:14:18;7.25;;;6.68;;
40675;SDS011;26359;48.750;9.314;2022-09-03T07:16:45;7.93;;;7.22;;
40675;SDS011;26359;48.750;9.314;2022-09-03T07:19:12;6.60;;;6.00;;
40675;SDS011;26359;48.750;9.314;2022-09-03T07:21:38;5.75;;;5.05;;
40675;SDS011;26359;48.750;9.314;2022-09-03T07:24:05;6.70;;;6.03;;
40675;SDS011;26359;48.750;9.314;2022-09-03T07:26:33;6.82;;;4.85;;
40675;SDS011;26359;48.750;9.314;2022-09-03T07:29:01;9.20;;;8.60;;
40675;SDS011;26359;48.750;9.314;2022-09-03T07:31:30;11.27;;;10.48;;
40675;SDS011;26359;48.750;9.314;2022-09-03T07:33:58;9.93;;;9.32;;
40675;SDS011;26359;48.750;9.314;2022-09-03T07:36:27;8.23;;;7.72;;
40675;SDS011;26359;48.750;9.314;2022-09-03T07:38:54;13.65;;;12.65;;
40675;SDS011;26359;48.750;9.314;2022-09-03T07:41:21;11.88;;;10.75;;
40675;SDS011;26359;48.750;9.314;2022-09-03T07:43:48;7.35;;;6.65;;
40675;SDS011;26359;48.750;9.314;2022-09-03T07:46:15;8.73;;;7.82;;
40675;SDS011;26359;48.750;9.314;2022-09-03T07:48:48;9.90;;;9.13;;
40675;SDS011;26359;48.750;9.314;2022-09-03T07:51:19;9.10;;;8.52;;
40675;SDS011;26359;48.750;9.314;2022-09-03T07:53:46;7.95;;;7.45;;
40675;SDS011;26359;48.750;9.314;2022-09-03T07:56:13;11.10;;;10.18;;
40675;SDS011;26359;48.750;9.314;2022-09-03T07:58:39;6.03;;;5.43;;
40675;SDS011;26359;48.750;9.314;2022-09-03T08:01:10;6.03;;;5.07;;
40675;SDS011;26359;48.750;9.314;2022-09-03T08:03:38;5.60;;;5.18;;
40675;SDS011;26359;48.750;9.314;2022-09-03T08:06:07;12.88;;;11.88;;
40675;SDS011;26359;48.750;9.314;2022-09-03T08:08:33;7.80;;;7.10;;
40675;SDS011;26359;48.750;9.314;2022-09-03T08:13:39;5.53;;;4.60;;
40675;SDS011;26359;48.750;9.314;2022-09-03T08:16:10;6.65;;;4.47;;
40675;SDS011;26359;48.750;9.314;2022-09-03T08:18:38;4.95;;;4.28;;
40675;SDS011;26359;48.750;9.314;2022-09-03T08:21:05;11.27;;;10.40;;
40675;SDS011;26359;48.750;9.314;2022-09-03T08:23:32;6.18;;;4.53;;
40675;SDS011;26359;48.750;9.314;2022-09-03T08:26:02;13.75;;;12.80;;
40675;SDS011;26359;48.750;9.314;2022-09-03T08:28:27;11.48;;;10.68;;
40675;SDS011;26359;48.750;9.314;2022-09-03T08:30:54;17.02;;;15.93;;
40675;SDS011;26359;48.750;9.314;2022-09-03T08:33:19;16.73;;;15.52;;
40675;SDS011;26359;48.750;9.314;2022-09-03T08:36:01;13.48;;;12.57;;
40675;SDS011;26359;48.750;9.314;2022-09-03T08:38:39;8.77;;;8.15;;
40675;SDS011;26359;48.750;9.314;2022-09-03T08:41:08;9.55;;;8.70;;
40675;SDS011;26359;48.750;9.314;2022-09-03T08:46:10;5.97;;;5.47;;
40675;SDS011;26359;48.750;9.314;2022-09-03T08:48:36;8.43;;;7.78;;
40675;SDS011;26359;48.750;9.314;2022-09-03T08:51:02;6.97;;;6.47;;
40675;SDS011;26359;48.750;9.314;2022-09-03T08:53:38;10.63;;;10.00;;
40675;SDS011;26359;48.750;9.314;2022-09-03T08:56:20;8.45;;;7.85;;
40675;SDS011;26359;48.750;9.314;2022-09-03T08:58:50;7.10;;;6.50;;
40675;SDS011;26359;48.750;9.314;2022-09-03T09:04:11;8.73;;;7.93;;
40675;SDS011;26359;48.750;9.314;2022-09-03T09:09:41;7.90;;;7.25;;
40675;SDS011;26359;48.750;9.314;2022-09-03T09:15:39;7.25;;;6.68;;
40675;SDS011;26359;48.750;9.314;2022-09-03T09:18:33;7.45;;;6.95;;
40675;SDS011;26359;48.750;9.314;2022-09-03T09:21:26;8.13;;;7.43;;
40675;SDS011;26359;48.750;9.314;2022-09-03T09:23:56;7.25;;;6.75;;
40675;SDS011;26359;48.750;9.314;2022-09-03T09:26:28;8.00;;;7.50;;
40675;SDS011;26359;48.750;9.314;2022-09-03T09:29:02;8.90;;;8.30;;
40675;SDS011;26359;48.750;9.314;2022-09-03T09:31:33;7.80;;;7.20;;
40675;SDS011;26359;48.750;9.314;2022-09-03T09:34:05;7.57;;;7.05;;
40675;SDS011;26359;48.750;9.314;2022-09-03T09:36:42;8.38;;;7.72;;
40675;SDS011;26359;48.750;9.314;2022-09-03T09:39:13;9.43;;;8.75;;
40675;SDS011;26359;48.750;9.314;2022-09-03T09:41:43;8.52;;;7.88;;
40675;SDS011;26359;48.750;9.314;2022-09-03T09:44:26;7.57;;;6.97;;
40675;SDS011;26359;48.750;9.314;2022-09-03T09:47:00;9.10;;;8.50;;
40675;SDS011;26359;48.750;9.314;2022-09-03T09:49:34;8.93;;;8.27;;
40675;SDS011;26359;48.750;9.314;2022-09-03T09:52:08;9.02;;;8.43;;
40675;SDS011;26359;48.750;9.314;2022-09-03T09:54:39;8.73;;;8.02;;
40675;SDS011;26359;48.750;9.314;2022-09-03T09:57:12;11.23;;;10.52;;
40675;SDS011;26359;48.750;9.314;2022-09-03T09:59:42;13.50;;;12.63;;
40675;SDS011;26359;48.750;9.314;2022-09-03T10:02:11;7.90;;;7.20;;
40675;SDS011;26359;48.750;9.314;2022-09-03T10:04:39;8.80;;;8.20;;
40675;SDS011;26359;48.750;9.314;2022-09-03T10:09:56;10.43;;;9.68;;
40675;SDS011;26359;48.750;9.314;2022-09-03T10:12:43;17.83;;;16.63;;
40675;SDS011;26359;48.750;9.314;2022-09-03T10:23:21;8.98;;;8.38;;
40675;SDS011;26359;48.750;9.314;2022-09-03T10:28:34;7.13;;;6.63;;
40675;SDS011;26359;48.750;9.314;2022-09-03T10:33:45;6.10;;;5.60;;
40675;SDS011;26359;48.750;9.314;2022-09-03T10:36:21;6.80;;;6.28;;
40675;SDS011;26359;48.750;9.314;2022-09-03T10:39:01;6.63;;;6.03;;
40675;SDS011;26359;48.750;9.314;2022-09-03T10:41:36;6.80;;;6.20;;
40675;SDS011;26359;48.750;9.314;2022-09-03T10:52:04;6.60;;;6.10;;
40675;SDS011;26359;48.750;9.314;2022-09-03T10:54:54;6.90;;;6.18;;
40675;SDS011;26359;48.750;9.314;2022-09-03T10:57:27;8.63;;;7.82;;
40675;SDS011;26359;48.750;9.314;2022-09-03T11:00:07;9.10;;;8.43;;
40675;SDS011;26359;48.750;9.314;2022-09-03T11:02:45;9.48;;;8.85;;
40675;SDS011;26359;48.750;9.314;2022-09-03T11:05:40;8.82;;;8.13;;
40675;SDS011;26359;48.750;9.314;2022-09-03T11:08:31;8.43;;;7.82;;
40675;SDS011;26359;48.750;9.314;2022-09-03T11:11:08;7.70;;;6.95;;
40675;SDS011;26359;48.750;9.314;2022-09-03T11:13:43;7.68;;;7.05;;
40675;SDS011;26359;48.750;9.314;2022-09-03T11:16:18;8.98;;;8.38;;
40675;SDS011;26359;48.750;9.314;2022-09-03T11:21:15;8.63;;;8.02;;
40675;SDS011;26359;48.750;9.314;2022-09-03T11:23:50;9.45;;;8.75;;
40675;SDS011;26359;48.750;9.314;2022-09-03T11:26:44;9.02;;;8.52;;
40675;SDS011;26359;48.750;9.314;2022-09-03T11:32:19;7.00;;;5.72;;
40675;SDS011;26359;48.750;9.314;2022-09-03T11:34:52;7.47;;;6.85;;
40675;SDS011;26359;48.750;9.314;2022-09-03T11:37:28;7.65;;;7.05;;
40675;SDS011;26359;48.750;9.314;2022-09-03T11:42:28;6.95;;;6.35;;
40675;SDS011;26359;48.750;9.314;2022-09-03T11:44:59;8.70;;;8.00;;
40675;SDS011;26359;48.750;9.314;2022-09-03T11:47:41;9.75;;;9.05;;
40675;SDS011;26359;48.750;9.314;2022-09-03T11:50:29;9.55;;;8.80;;
40675;SDS011;26359;48.750;9.314;2022-09-03T11:53:08;9.80;;;8.90;;
40675;SDS011;26359;48.750;9.314;2022-09-03T11:55:51;7.15;;;6.63;;
40675;SDS011;26359;48.750;9.314;2022-09-03T11:58:24;11.60;;;10.90;;
40675;SDS011;26359;48.750;9.314;2022-09-03T12:00:52;6.90;;;6.07;;
40675;SDS011;26359;48.750;9.314;2022-09-03T12:03:23;7.05;;;6.50;;
40675;SDS011;26359;48.750;9.314;2022-09-03T12:06:04;6.72;;;6.13;;
40675;SDS011;26359;48.750;9.314;2022-09-03T12:13:54;11.85;;;11.05;;
40675;SDS011;26359;48.750;9.314;2022-09-03T12:16:51;7.63;;;7.03;;
40675;SDS011;26359;48.750;9.314;2022-09-03T12:19:41;8.48;;;7.88;;
40675;SDS011;26359;48.750;9.314;2022-09-03T12:22:20;9.15;;;8.38;;
40675;SDS011;26359;48.750;9.314;2022-09-03T12:24:48;8.95;;;8.23;;
40675;SDS011;26359;48.750;9.314;2022-09-03T12:27:18;14.80;;;13.90;;
40675;SDS011;26359;48.750;9.314;2022-09-03T12:29:58;4.95;;;4.55;;
40675;SDS011;26359;48.750;9.314;2022-09-03T12:32:30;6.57;;;4.70;;
40675;SDS011;26359;48.750;9.314;2022-09-03T12:35:11;8.27;;;7.68;;
40675;SDS011;26359;48.750;9.314;2022-09-03T12:37:42;3.45;;;3.15;;
40675;SDS011;26359;48.750;9.314;2022-09-03T12:40:27;4.05;;;2.75;;
40675;SDS011;26359;48.750;9.314;2022-09-03T12:42:54;4.57;;;3.53;;
40675;SDS011;26359;48.750;9.314;2022-09-03T12:45:40;4.80;;;3.95;;
40675;SDS011;26359;48.750;9.314;2022-09-03T12:48:14;5.35;;;2.50;;
40675;SDS011;26359;48.750;9.314;2022-09-03T12:50:41;2.25;;;1.83;;
40675;SDS011;26359;48.750;9.314;2022-09-03T12:53:08;4.78;;;3.75;;
40675;SDS011;26359;48.750;9.314;2022-09-03T12:55:50;3.97;;;3.33;;
40675;SDS011;26359;48.750;9.314;2022-09-03T13:01:02;4.32;;;3.00;;
40675;SDS011;26359;48.750;9.314;2022-09-03T13:03:43;4.00;;;2.45;;
40675;SDS011;26359;48.750;9.314;2022-09-03T13:09:25;3.03;;;2.22;;
40675;SDS011;26359;48.750;9.314;2022-09-03T13:11:54;3.17;;;2.97;;
40675;SDS011;26359;48.750;9.314;2022-09-03T13:14:39;7.22;;;3.15;;
40675;SDS011;26359;48.750;9.314;2022-09-03T13:20:03;2.10;;;1.60;;
40675;SDS011;26359;48.750;9.314;2022-09-03T13:25:23;2.58;;;2.17;;
40675;SDS011;26359;48.750;9.314;2022-09-03T13:28:01;2.97;;;1.88;;
40675;SDS011;26359;48.750;9.314;2022-09-03T13:30:58;2.58;;;2.25;;
40675;SDS011;26359;48.750;9.314;2022-09-03T13:33:40;2.97;;;1.75;;
40675;SDS011;26359;48.750;9.314;2022-09-03T13:36:10;2.03;;;1.83;;
40675;SDS011;26359;48.750;9.314;2022-09-03T13:38:41;2.10;;;1.73;;
40675;SDS011;26359;48.750;9.314;2022-09-03T13:52:31;2.50;;;1.70;;
40675;SDS011;26359;48.750;9.314;2022-09-03T13:57:52;1.30;;;1.10;;
40675;SDS011;26359;48.750;9.314;2022-09-03T14:00:28;1.88;;;1.40;;
40675;SDS011;26359;48.750;9.314;2022-09-03T14:08:33;3.60;;;1.73;;
40675;SDS011;26359;48.750;9.314;2022-09-03T14:11:29;2.13;;;1.48;;
40675;SDS011;26359;48.750;9.314;2022-09-03T14:17:03;2.85;;;1.95;;
40675;SDS011;26359;48.750;9.314;2022-09-03T14:25:15;3.80;;;1.67;;
40675;SDS011;26359;48.750;9.314;2022-09-03T14:27:43;2.00;;;1.83;;
40675;SDS011;26359;48.750;9.314;2022-09-03T14:32:43;2.08;;;1.85;;
40675;SDS011;26359;48.750;9.314;2022-09-03T14:40:40;4.18;;;3.88;;
40675;SDS011;26359;48.750;9.314;2022-09-03T14:49:16;3.85;;;3.47;;
40675;SDS011;26359;48.750;9.314;2022-09-03T14:52:01;3.45;;;3.25;;
40675;SDS011;26359;48.750;9.314;2022-09-03T14:54:40;4.10;;;3.72;;
40675;SDS011;26359;48.750;9.314;2022-09-03T14:57:37;2.30;;;2.10;;
40675;SDS011;26359;48.750;9.314;2022-09-03T15:03:00;4.70;;;4.40;;
40675;SDS011;26359;48.750;9.314;2022-09-03T15:10:58;2.78;;;2.58;;
40675;SDS011;26359;48.750;9.314;2022-09-03T15:13:26;3.55;;;3.35;;
40675;SDS011;26359;48.750;9.314;2022-09-03T15:20:51;3.67;;;3.42;;
40675;SDS011;26359;48.750;9.314;2022-09-03T15:23:19;3.97;;;3.78;;
40675;SDS011;26359;48.750;9.314;2022-09-03T15:28:53;4.40;;;4.10;;
40675;SDS011;26359;48.750;9.314;2022-09-03T15:31:39;3.88;;;3.65;;
40675;SDS011;26359;48.750;9.314;2022-09-03T15:36:50;3.40;;;3.20;;
40675;SDS011;26359;48.750;9.314;2022-09-03T15:39:27;3.67;;;3.25;;
40675;SDS011;26359;48.750;9.314;2022-09-03T15:41:58;3.97;;;3.78;;
40675;SDS011;26359;48.750;9.314;2022-09-03T15:44:37;4.00;;;3.70;;
40675;SDS011;26359;48.750;9.314;2022-09-03T15:47:34;4.28;;;3.97;;
40675;SDS011;26359;48.750;9.314;2022-09-03T15:50:33;3.85;;;3.25;;
40675;SDS011;26359;48.750;9.314;2022-09-03T15:53:18;2.85;;;2.65;;
40675;SDS011;26359;48.750;9.314;2022-09-03T15:56:05;5.78;;;5.38;;
40675;SDS011;26359;48.750;9.314;2022-09-03T15:58:49;3.83;;;3.55;;
40675;SDS011;26359;48.750;9.314;2022-09-03T16:02:13;3.88;;;3.67;;
40675;SDS011;26359;48.750;9.314;2022-09-03T16:15:16;5.25;;;4.95;;
40675;SDS011;26359;48.750;9.314;2022-09-03T16:17:56;5.30;;;4.97;;
40675;SDS011;26359;48.750;9.314;2022-09-03T16:20:33;4.45;;;4.00;;
40675;SDS011;26359;48.750;9.314;2022-09-03T16:28:47;3.30;;;3.00;;
40675;SDS011;26359;48.750;9.314;2022-09-03T16:31:21;4.18;;;3.88;;
40675;SDS011;26359;48.750;9.314;2022-09-03T16:34:17;4.97;;;4.68;;
40675;SDS011;26359;48.750;9.314;2022-09-03T16:37:18;3.92;;;3.63;;
40675;SDS011;26359;48.750;9.314;2022-09-03T16:42:43;3.47;;;3.17;;
40675;SDS011;26359;48.750;9.314;2022-09-03T16:54:00;3.22;;;3.00;;
40675;SDS011;26359;48.750;9.314;2022-09-03T16:59:46;3.38;;;3.10;;
40675;SDS011;26359;48.750;9.314;2022-09-03T17:07:40;8.77;;;8.20;;
40675;SDS011;26359;48.750;9.314;2022-09-03T17:13:19;7.22;;;6.72;;
40675;SDS011;26359;48.750;9.314;2022-09-03T17:30:57;8.35;;;7.85;;
40675;SDS011;26359;48.750;9.314;2022-09-03T17:33:54;3.78;;;3.47;;
40675;SDS011;26359;48.750;9.314;2022-09-03T17:36:26;3.40;;;3.10;;
40675;SDS011;26359;48.750;9.314;2022-09-03T17:44:22;3.33;;;3.05;;
40675;SDS011;26359;48.750;9.314;2022-09-03T17:50:05;3.28;;;2.90;;
40675;SDS011;26359;48.750;9.314;2022-09-03T17:52:44;3.08;;;2.42;;
40675;SDS011;26359;48.750;9.314;2022-09-03T17:58:09;4.55;;;4.03;;
40675;SDS011;26359;48.750;9.314;2022-09-03T18:00:50;4.20;;;3.90;;
40675;SDS011;26359;48.750;9.314;2022-09-03T18:11:40;4.10;;;2.50;;
40675;SDS011;26359;48.750;9.314;2022-09-03T18:14:18;5.10;;;4.75;;
40675;SDS011;26359;48.750;9.314;2022-09-03T18:16:54;6.40;;;6.00;;
40675;SDS011;26359;48.750;9.314;2022-09-03T18:19:36;6.28;;;5.88;;
40675;SDS011;26359;48.750;9.314;2022-09-03T18:22:28;3.60;;;3.30;;
40675;SDS011;26359;48.750;9.314;2022-09-03T18:25:18;4.05;;;3.75;;
40675;SDS011;26359;48.750;9.314;2022-09-03T18:28:07;4.72;;;4.43;;
40675;SDS011;26359;48.750;9.314;2022-09-03T18:30:56;3.40;;;3.10;;
40675;SDS011;26359;48.750;9.314;2022-09-03T18:33:40;3.88;;;3.58;;
40675;SDS011;26359;48.750;9.314;2022-09-03T18:36:24;3.03;;;2.80;;
40675;SDS011;26359;48.750;9.314;2022-09-03T18:39:25;2.45;;;2.25;;
40675;SDS011;26359;48.750;9.314;2022-09-03T18:42:24;3.20;;;2.83;;
40675;SDS011;26359;48.750;9.314;2022-09-03T18:45:31;3.42;;;2.67;;
40675;SDS011;26359;48.750;9.314;2022-09-03T18:51:40;2.92;;;2.72;;
40675;SDS011;26359;48.750;9.314;2022-09-03T18:54:44;2.20;;;2.10;;
40675;SDS011;26359;48.750;9.314;2022-09-03T18:57:59;3.20;;;2.42;;
40675;SDS011;26359;48.750;9.314;2022-09-03T19:07:07;2.50;;;2.10;;
40675;SDS011;26359;48.750;9.314;2022-09-03T19:15:50;2.83;;;2.42;;
40675;SDS011;26359;48.750;9.314;2022-09-03T19:18:49;2.50;;;2.28;;
40675;SDS011;26359;48.750;9.314;2022-09-03T19:22:03;2.38;;;2.17;;
40675;SDS011;26359;48.750;9.314;2022-09-03T19:24:51;2.17;;;1.83;;
40675;SDS011;26359;48.750;9.314;2022-09-03T19:30:51;3.47;;;1.65;;
40675;SDS011;26359;48.750;9.314;2022-09-03T19:37:14;2.13;;;1.90;;
40675;SDS011;26359;48.750;9.314;2022-09-03T19:40:15;2.03;;;1.63;;
40675;SDS011;26359;48.750;9.314;2022-09-03T19:43:24;1.83;;;1.73;;
40675;SDS011;26359;48.750;9.314;2022-09-03T19:46:38;3.08;;;1.70;;
40675;SDS011;26359;48.750;9.314;2022-09-03T19:49:49;2.00;;;1.80;;